createdAt,value
2023-01-18T00:04:50.417Z,99000.25
2023-01-18T00:09:53.339Z,98932.53
2023-01-18T00:14:55.583Z,98893.88
2023-01-18T00:19:57.906Z,99014.44
2023-01-18T00:25:00.136Z,98982.28
2023-01-18T00:30:04.158Z,98944.91
2023-01-18T00:35:07.672Z,99007.59
2023-01-18T00:40:10.774Z,98890.09
2023-01-18T00:45:13.330Z,99020.81
2023-01-18T00:50:15.864Z,98986.78
2023-01-18T00:55:18.173Z,98997.16
2023-01-18T01:00:20.710Z,99004.97
2023-01-18T01:05:43.991Z,98958.94
2023-01-18T01:10:50.753Z,98984.16
2023-01-18T01:16:11.544Z,98956.19
2023-01-18T01:21:32.310Z,99022.06
2023-01-18T01:26:34.625Z,98975.13
2023-01-18T01:31:36.928Z,98983.66
2023-01-18T01:36:39.260Z,98997.50
2023-01-18T01:41:41.626Z,98823.84
2023-01-18T01:46:59.023Z,99018.16
2023-01-18T01:52:08.768Z,99011.25
2023-01-18T01:57:15.083Z,98992.09
2023-01-18T02:02:17.423Z,98964.25
2023-01-18T02:07:23.991Z,98862.41
2023-01-18T02:12:26.891Z,98867.38
2023-01-18T02:17:38.836Z,98995.16
2023-01-18T02:23:02.737Z,99001.13
2023-01-18T02:28:34.752Z,98969.84
2023-01-18T02:33:52.588Z,98960.34
2023-01-18T02:38:56.708Z,98889.69
2023-01-18T02:44:17.235Z,98845.06
2023-01-18T02:49:23.288Z,98966.69
2023-01-18T02:54:25.563Z,98919.69
2023-01-18T02:59:39.106Z,98981.56
2023-01-18T03:04:54.471Z,99030.38
2023-01-18T03:09:57.556Z,98973.34
2023-01-18T03:15:23.589Z,98970.78
2023-01-18T03:20:33.615Z,99023.41
2023-01-18T03:25:56.626Z,99001.28
2023-01-18T03:31:19.334Z,99020.06
2023-01-18T03:36:29.199Z,99050.13
2023-01-18T03:41:31.808Z,99047.88
2023-01-18T03:46:34.546Z,98979.56
2023-01-18T03:52:09.197Z,99062.13
2023-01-18T03:57:39.436Z,99045.06
2023-01-18T04:02:45.023Z,98872.72
2023-01-18T04:07:47.597Z,98979.59
2023-01-18T04:12:49.986Z,99045.81
2023-01-18T04:17:55.936Z,99024.00
2023-01-18T04:22:58.515Z,99024.00
2023-01-18T04:28:01.055Z,98988.16
2023-01-18T04:33:03.360Z,99066.50
2023-01-18T04:38:05.639Z,99054.97
2023-01-18T04:43:07.907Z,99043.84
2023-01-18T04:48:10.210Z,99009.50
2023-01-18T04:53:12.530Z,98972.69
2023-01-18T04:58:17.808Z,99049.31
2023-01-18T05:03:20.049Z,99033.50
2023-01-18T05:08:22.676Z,99041.97
2023-01-18T05:13:24.926Z,99113.22
2023-01-18T05:18:27.387Z,99063.97
2023-01-18T05:23:29.768Z,99121.56
2023-01-18T05:28:32.070Z,99086.47
2023-01-18T05:33:35.881Z,99140.84
2023-01-18T05:38:38.173Z,98909.03
2023-01-18T05:43:40.843Z,99073.63
2023-01-18T05:48:43.112Z,99052.47
2023-01-18T05:53:45.532Z,99124.72
2023-01-18T05:58:47.838Z,99083.09
2023-01-18T06:03:50.102Z,99091.75
2023-01-18T06:08:52.418Z,99138.63
2023-01-18T06:13:56.792Z,99168.34
2023-01-18T06:18:59.112Z,99134.19
2023-01-18T06:24:01.340Z,99107.84
2023-01-18T06:29:03.723Z,99138.34
2023-01-18T06:34:09.627Z,99143.66
2023-01-18T06:39:12.128Z,99075.06
2023-01-18T06:44:14.373Z,99040.16
2023-01-18T06:49:17.234Z,99138.75
2023-01-18T06:54:19.458Z,99124.50
2023-01-18T06:59:21.648Z,99059.44
2023-01-18T07:04:24.026Z,99080.88
2023-01-18T07:09:26.378Z,99110.19
2023-01-18T07:14:29.139Z,99190.34
2023-01-18T07:19:31.411Z,99186.56
2023-01-18T07:24:33.765Z,99197.31
2023-01-18T07:29:36.549Z,99170.16
2023-01-18T07:34:38.789Z,99179.59
2023-01-18T07:39:41.067Z,99156.13
2023-01-18T07:44:43.294Z,99130.75
2023-01-18T07:49:45.548Z,99176.41
2023-01-18T07:54:47.853Z,98920.06
2023-01-18T07:59:50.100Z,99170.50
2023-01-18T08:04:52.430Z,99039.34
2023-01-18T08:09:54.757Z,99175.66
2023-01-18T08:14:57.023Z,99112.63
2023-01-18T08:19:59.419Z,99212.53
2023-01-18T08:25:02.000Z,99073.44
2023-01-18T08:30:07.468Z,99179.81
2023-01-18T08:35:10.616Z,99205.50
2023-01-18T08:40:13.133Z,99165.31
2023-01-18T08:45:16.040Z,99190.44
2023-01-18T08:50:18.404Z,99087.13
2023-01-18T08:55:21.888Z,99150.06
2023-01-18T09:00:26.992Z,99192.47
2023-01-18T09:05:29.455Z,99151.88
2023-01-18T09:10:33.005Z,99141.25
2023-01-18T09:15:35.268Z,99073.91
2023-01-18T09:20:37.610Z,99216.56
2023-01-18T09:25:41.247Z,99251.59
2023-01-18T09:30:43.641Z,99207.78
2023-01-18T09:35:45.874Z,99226.97
2023-01-18T09:40:48.209Z,99183.34
2023-01-18T09:45:50.409Z,99187.97
2023-01-18T09:50:53.636Z,99144.28
2023-01-18T09:56:29.243Z,99172.44
2023-01-18T10:01:38.840Z,99257.16
2023-01-18T10:06:50.547Z,98934.91
2023-01-18T10:12:07.436Z,99259.00
2023-01-18T10:17:14.387Z,99176.88
2023-01-18T10:22:29.325Z,99232.50
2023-01-18T10:28:13.155Z,99235.28
2023-01-18T10:33:22.314Z,99182.25
2023-01-18T10:38:27.465Z,99225.13
2023-01-18T10:43:32.038Z,99252.25
2023-01-18T10:48:35.019Z,99241.66
2023-01-18T10:53:38.902Z,99220.69
2023-01-18T10:58:47.093Z,99223.47
2023-01-18T11:03:52.185Z,99204.38
2023-01-18T11:08:54.503Z,99227.13
2023-01-18T11:13:56.820Z,99214.25
2023-01-18T11:19:04.539Z,99220.59
2023-01-18T11:24:18.517Z,99154.06
2023-01-18T11:29:21.642Z,99194.22
2023-01-18T11:34:38.027Z,99179.88
2023-01-18T11:39:40.317Z,99127.09
2023-01-18T11:44:48.610Z,99164.47
2023-01-18T11:50:05.487Z,99177.91
2023-01-18T11:55:25.746Z,99203.22
2023-01-18T12:00:31.929Z,99205.28
2023-01-18T12:05:55.138Z,99153.16
2023-01-18T12:11:06.369Z,99206.38
2023-01-18T12:16:08.597Z,99207.19
2023-01-18T12:21:19.408Z,99115.84
2023-01-18T12:26:54.863Z,99235.69
2023-01-18T12:32:21.836Z,99242.44
2023-01-18T12:37:29.955Z,99243.22
2023-01-18T12:42:50.742Z,99221.03
2023-01-18T12:48:24.870Z,99239.13
2023-01-18T12:53:41.443Z,99196.44
2023-01-18T12:58:44.558Z,99083.56
2023-01-18T13:03:48.010Z,99188.53
2023-01-18T13:09:00.296Z,99172.84
2023-01-18T13:14:11.966Z,99158.66
2023-01-18T13:19:21.104Z,99204.44
2023-01-18T13:24:30.202Z,99216.03
2023-01-18T13:29:33.347Z,99166.56
2023-01-18T13:34:47.751Z,99173.84
2023-01-18T13:39:51.552Z,99183.31
2023-01-18T13:45:18.980Z,99143.59
2023-01-18T13:50:39.585Z,99196.28
2023-01-18T13:55:46.468Z,99170.69
2023-01-18T14:00:49.348Z,99123.63
2023-01-18T14:05:52.857Z,98922.59
2023-01-18T14:11:03.499Z,99179.75
2023-01-18T14:16:05.945Z,99188.84
2023-01-18T14:21:19.795Z,99156.09
2023-01-18T14:26:22.704Z,99095.25
2023-01-18T14:31:34.424Z,99001.00
2023-01-18T14:36:36.798Z,99114.16
2023-01-18T14:41:44.852Z,99120.94
2023-01-18T14:46:56.350Z,99098.31
2023-01-18T14:51:59.402Z,99184.28
2023-01-18T14:57:03.586Z,99207.31
2023-01-18T15:02:16.853Z,99204.78
2023-01-18T15:07:34.624Z,99084.44
2023-01-18T15:12:42.525Z,99182.53
2023-01-18T15:17:45.692Z,99110.19
2023-01-18T15:22:50.830Z,99089.13
2023-01-18T15:27:58.766Z,99108.56
2023-01-18T15:33:13.136Z,98723.63
2023-01-18T15:38:20.738Z,99113.75
2023-01-18T15:43:28.759Z,99177.44
2023-01-18T15:48:36.465Z,99157.34
2023-01-18T15:53:46.062Z,99124.25
2023-01-18T15:58:50.317Z,99171.09
2023-01-18T16:03:54.668Z,99160.34
2023-01-18T16:08:57.777Z,98946.78
2023-01-18T16:14:07.998Z,99141.47
2023-01-18T16:19:32.203Z,99168.28
2023-01-18T16:24:51.980Z,99157.81
2023-01-18T16:29:54.268Z,99169.38
2023-01-18T16:35:13.834Z,99082.47
2023-01-18T16:40:21.909Z,99064.19
2023-01-18T16:45:27.382Z,99110.63
2023-01-18T16:50:30.186Z,99081.50
2023-01-18T16:55:32.524Z,99107.44
2023-01-18T17:00:42.329Z,98850.88
2023-01-18T17:05:44.625Z,99134.78
2023-01-18T17:10:49.285Z,98833.47
2023-01-18T17:15:52.550Z,99041.44
2023-01-18T17:20:55.290Z,99147.72
2023-01-18T17:25:59.153Z,99139.34
2023-01-18T17:31:01.667Z,99056.44
2023-01-18T17:41:09.530Z,99161.38
2023-01-18T17:46:13.904Z,99113.06
2023-01-18T17:51:16.427Z,99047.91
2023-01-18T17:56:18.794Z,99157.63
2023-01-18T18:01:21.189Z,99147.19
2023-01-18T18:06:30.824Z,99120.16
2023-01-18T18:11:33.739Z,99158.06
2023-01-18T18:16:43.545Z,99116.13
2023-01-18T18:21:46.242Z,99084.03
2023-01-18T18:26:48.532Z,99127.88
2023-01-18T18:31:53.516Z,99047.00
2023-01-18T18:36:55.799Z,99139.91
2023-01-18T18:41:58.190Z,99086.28
2023-01-18T18:47:04.863Z,99116.06
2023-01-18T18:52:08.088Z,99081.09
2023-01-18T18:57:30.007Z,99033.50
2023-01-18T19:02:32.447Z,99092.31
2023-01-18T19:07:39.684Z,98896.66
2023-01-18T19:12:57.375Z,99028.53
2023-01-18T19:17:59.899Z,98976.69
2023-01-18T19:23:02.784Z,98997.84
2023-01-18T19:28:05.415Z,99014.75
2023-01-18T19:33:08.651Z,99089.25
2023-01-18T19:38:11.275Z,99002.50
2023-01-18T19:43:16.577Z,99028.47
2023-01-18T19:48:18.903Z,99048.19
2023-01-18T19:53:21.508Z,98980.19
2023-01-18T19:58:31.035Z,98974.03
2023-01-18T20:03:34.675Z,99004.59
2023-01-18T20:08:37.244Z,98997.00
2023-01-18T20:13:40.388Z,99059.41
2023-01-18T20:18:42.627Z,99047.44
2023-01-18T20:23:45.844Z,99053.53
2023-01-18T20:28:48.970Z,99047.69
2023-01-18T20:33:51.665Z,99042.41
2023-01-18T20:38:55.229Z,99004.16
2023-01-18T20:44:00.052Z,98948.16
2023-01-18T20:49:03.793Z,98938.78
2023-01-18T20:54:06.270Z,98955.75
2023-01-18T20:59:08.624Z,98973.38
2023-01-18T21:04:10.899Z,98999.25
2023-01-18T21:09:13.245Z,98969.06
2023-01-18T21:14:16.639Z,98984.34
2023-01-18T21:19:18.872Z,98922.25
2023-01-18T21:24:21.383Z,98966.50
2023-01-18T21:29:23.592Z,98959.84
2023-01-18T21:34:25.921Z,98949.50
2023-01-18T21:39:28.852Z,98961.69
2023-01-18T21:44:49.476Z,98954.16
2023-01-18T21:50:18.630Z,98985.72
2023-01-18T21:55:22.059Z,98933.50
2023-01-18T22:00:24.311Z,98945.78
2023-01-18T22:05:26.583Z,98903.00
2023-01-18T22:10:28.979Z,98983.44
2023-01-18T22:15:31.235Z,98774.38
2023-01-18T22:20:33.470Z,98956.78
2023-01-18T22:25:35.897Z,98984.97
2023-01-18T22:30:38.254Z,98757.66
2023-01-18T22:35:41.042Z,98928.22
2023-01-18T22:40:43.281Z,98832.94
2023-01-18T22:45:54.765Z,98919.44
2023-01-18T22:51:00.658Z,98930.88
2023-01-18T22:56:23.232Z,98926.13
2023-01-18T23:01:31.190Z,98983.50
2023-01-18T23:06:45.888Z,98869.88
2023-01-18T23:11:48.236Z,98905.63
2023-01-18T23:17:08.917Z,98915.72
2023-01-18T23:22:12.142Z,98883.56
2023-01-18T23:27:14.439Z,98898.06
2023-01-18T23:32:17.642Z,98930.88
2023-01-18T23:37:19.865Z,98909.94
2023-01-18T23:42:40.522Z,98861.19
2023-01-18T23:48:01.499Z,98896.25
2023-01-18T23:53:23.595Z,98895.53
2023-01-18T23:58:26.344Z,98900.06
